Terminal Aerodrome Forecast
Issued by NWS Melbourne, FL

Home | Current Version | Previous Version | Text Only | Print | Product List | Glossary On
Versions: 1 2 3 4 5 6 7 8 9 10 11 12 13 14 15
000
FTUS42 KMLB 220500
TAFDAB
TAF
KDAB 220539Z 2206/2306 19002KT P6SM FEW250
     FM221400 22006KT P6SM FEW035
     FM221600 08006KT P6SM SCT035
     FM222300 13006KT P6SM SCT040 SCT200=

USA.gov is the U.S. government's official web portal to all federal, state and local government web resources and services.